createdAt,value
2023-02-07T00:00:16.350Z,25.15
2023-02-07T00:02:47.459Z,23.75
2023-02-07T00:05:14.623Z,23.70
2023-02-07T00:07:41.646Z,25.20
2023-02-07T00:10:08.744Z,24.05
2023-02-07T00:12:35.770Z,23.58
2023-02-07T00:15:02.292Z,24.38
2023-02-07T00:17:32.532Z,24.65
2023-02-07T00:19:59.299Z,25.67
2023-02-07T00:22:25.893Z,25.85
2023-02-07T00:24:52.599Z,25.00
2023-02-07T00:27:19.122Z,26.20
2023-02-07T00:29:45.774Z,27.02
2023-02-07T00:32:12.407Z,29.13
2023-02-07T00:34:38.977Z,28.98
2023-02-07T00:37:06.278Z,28.95
2023-02-07T00:39:32.996Z,26.85
2023-02-07T00:41:59.511Z,25.13
2023-02-07T00:44:26.445Z,26.15
2023-02-07T00:46:54.226Z,25.23
2023-02-07T00:49:20.871Z,26.75
2023-02-07T00:51:47.471Z,25.92
2023-02-07T00:54:14.141Z,25.70
2023-02-07T00:56:40.828Z,23.60
2023-02-07T00:59:07.530Z,25.50
2023-02-07T01:01:34.215Z,26.20
2023-02-07T01:04:00.874Z,24.27
2023-02-07T01:06:28.209Z,24.63
2023-02-07T01:08:59.936Z,26.02
2023-02-07T01:11:26.834Z,24.27
2023-02-07T01:13:53.594Z,24.05
2023-02-07T01:16:26.201Z,24.58
2023-02-07T01:18:53.081Z,24.17
2023-02-07T01:21:22.226Z,24.90
2023-02-07T01:23:49.367Z,24.13
2023-02-07T01:26:18.026Z,22.42
2023-02-07T01:28:44.668Z,23.63
2023-02-07T01:31:13.385Z,24.17
2023-02-07T01:33:40.183Z,27.10
2023-02-07T01:36:09.134Z,28.55
2023-02-07T01:38:36.425Z,29.38
2023-02-07T01:41:03.369Z,28.80
2023-02-07T01:43:30.524Z,28.98
2023-02-07T01:45:57.179Z,29.50
2023-02-07T01:48:29.126Z,29.35
2023-02-07T01:51:00.690Z,29.38
2023-02-07T01:53:29.575Z,28.30
2023-02-07T01:56:01.229Z,24.58
2023-02-07T01:58:28.455Z,23.35
2023-02-07T02:00:55.409Z,27.08
2023-02-07T02:03:22.248Z,25.23
2023-02-07T02:05:52.092Z,22.88
2023-02-07T02:08:18.604Z,23.88
2023-02-07T02:11:02.017Z,23.52
2023-02-07T02:13:58.368Z,23.42
2023-02-07T02:17:01.851Z,21.80
2023-02-07T02:19:59.733Z,21.33
2023-02-07T02:22:55.189Z,22.10
2023-02-07T02:25:38.608Z,22.30
2023-02-07T02:28:20.393Z,21.85
2023-02-07T02:31:05.831Z,20.65
2023-02-07T02:33:57.803Z,21.35
2023-02-07T02:36:50.577Z,21.75
2023-02-07T02:39:29.101Z,25.08
2023-02-07T02:42:07.709Z,25.50
2023-02-07T02:44:47.100Z,25.60
2023-02-07T02:47:14.336Z,26.10
2023-02-07T02:49:41.389Z,24.27
2023-02-07T02:52:08.114Z,22.90
2023-02-07T02:54:37.275Z,23.77
2023-02-07T02:57:31.676Z,23.52
2023-02-07T03:00:46.373Z,20.95
2023-02-07T03:03:35.024Z,24.77
2023-02-07T03:06:04.484Z,25.77
2023-02-07T03:08:45.550Z,26.67
2023-02-07T03:11:17.483Z,25.25
2023-02-07T03:14:00.906Z,26.27
2023-02-07T03:17:01.453Z,21.75
2023-02-07T03:19:35.757Z,25.10
2023-02-07T03:22:11.290Z,23.55
2023-02-07T03:24:42.606Z,23.40
2023-02-07T03:27:13.352Z,25.00
2023-02-07T03:29:44.058Z,23.77
2023-02-07T03:32:13.207Z,23.88
2023-02-07T03:34:58.150Z,23.58
2023-02-07T03:37:48.805Z,21.98
2023-02-07T03:40:16.354Z,21.00
2023-02-07T03:42:49.658Z,19.92
2023-02-07T03:45:19.517Z,20.73
2023-02-07T03:47:46.556Z,21.95
2023-02-07T03:50:14.031Z,20.25
2023-02-07T03:52:40.634Z,20.17
2023-02-07T03:55:07.882Z,21.58
2023-02-07T03:57:34.623Z,24.00
2023-02-07T04:00:01.266Z,26.08
2023-02-07T04:02:27.814Z,28.08
2023-02-07T04:04:54.376Z,26.10
2023-02-07T04:07:20.963Z,28.38
2023-02-07T04:09:47.525Z,26.02
2023-02-07T04:12:14.042Z,29.67
2023-02-07T04:14:40.578Z,27.88
2023-02-07T04:17:07.152Z,26.05
2023-02-07T04:19:33.734Z,24.10
2023-02-07T04:22:00.241Z,23.27
2023-02-07T04:24:26.847Z,21.83
2023-02-07T04:26:53.409Z,23.15
2023-02-07T04:29:20.115Z,21.88
2023-02-07T04:31:46.750Z,21.05
2023-02-07T04:34:13.411Z,21.40
2023-02-07T04:36:40.282Z,21.00
2023-02-07T04:39:06.826Z,22.13
2023-02-07T04:41:33.451Z,22.17
2023-02-07T04:44:00.125Z,21.05
2023-02-07T04:46:28.591Z,21.08
2023-02-07T04:48:57.882Z,22.33
2023-02-07T04:51:24.466Z,21.67
2023-02-07T04:53:51.023Z,21.88
2023-02-07T04:56:17.541Z,22.77
2023-02-07T04:58:44.159Z,23.08
2023-02-07T05:01:10.726Z,20.58
2023-02-07T05:03:37.233Z,21.05
2023-02-07T05:06:04.073Z,22.05
2023-02-07T05:08:30.748Z,21.73
2023-02-07T05:10:57.437Z,34.83
2023-02-07T05:13:25.207Z,27.67
2023-02-07T05:15:52.038Z,24.55
2023-02-07T05:18:19.209Z,21.90
2023-02-07T05:20:45.741Z,21.20
2023-02-07T05:23:12.366Z,21.23
2023-02-07T05:25:40.963Z,20.80
2023-02-07T05:28:07.538Z,22.08
2023-02-07T05:30:34.173Z,23.73
2023-02-07T05:33:03.675Z,20.42
2023-02-07T05:35:41.354Z,19.67
2023-02-07T05:38:10.634Z,19.65
2023-02-07T05:40:38.538Z,20.25
2023-02-07T05:43:06.165Z,21.92
2023-02-07T05:45:33.649Z,20.65
2023-02-07T05:48:00.510Z,20.38
2023-02-07T05:50:27.409Z,22.25
2023-02-07T05:52:54.092Z,20.17
2023-02-07T05:55:20.697Z,21.52
2023-02-07T05:57:47.526Z,20.55
2023-02-07T06:00:18.004Z,21.92
2023-02-07T06:02:45.422Z,21.15
2023-02-07T06:05:15.798Z,24.92
2023-02-07T06:07:44.291Z,23.27
2023-02-07T06:10:13.718Z,22.83
2023-02-07T06:12:40.458Z,22.90
2023-02-07T06:15:07.403Z,22.75
2023-02-07T06:17:33.959Z,24.08
2023-02-07T06:20:00.559Z,21.23
2023-02-07T06:22:27.100Z,26.17
2023-02-07T06:24:53.674Z,23.30
2023-02-07T06:27:21.136Z,22.42
2023-02-07T06:29:47.817Z,21.95
2023-02-07T06:32:14.347Z,21.17
2023-02-07T06:34:41.325Z,20.45
2023-02-07T06:37:08.046Z,22.45
2023-02-07T06:39:34.698Z,20.83
2023-02-07T06:42:01.240Z,21.40
2023-02-07T06:44:27.801Z,19.95
2023-02-07T06:46:54.418Z,21.27
2023-02-07T06:49:20.991Z,19.98
2023-02-07T06:51:47.556Z,20.58
2023-02-07T06:54:14.140Z,19.17
2023-02-07T06:56:40.679Z,18.48
2023-02-07T06:59:07.287Z,19.70
2023-02-07T07:01:33.840Z,18.90
2023-02-07T07:04:00.455Z,18.40
2023-02-07T07:06:27.070Z,20.50
2023-02-07T07:08:55.493Z,21.17
2023-02-07T07:11:22.062Z,20.10
2023-02-07T07:13:48.707Z,19.90
2023-02-07T07:16:15.368Z,19.55
2023-02-07T07:18:41.990Z,17.90
2023-02-07T07:21:09.660Z,19.10
2023-02-07T07:23:36.599Z,20.52
2023-02-07T07:26:03.498Z,20.52
2023-02-07T07:28:30.364Z,19.95
2023-02-07T07:31:02.987Z,19.60
2023-02-07T07:33:29.622Z,19.50
2023-02-07T07:36:00.761Z,20.77
2023-02-07T07:38:27.670Z,19.05
2023-02-07T07:40:54.489Z,19.40
2023-02-07T07:43:21.630Z,20.33
2023-02-07T07:45:56.195Z,18.95
2023-02-07T07:48:23.940Z,19.50
2023-02-07T07:50:50.812Z,16.58
2023-02-07T07:53:18.587Z,18.67
2023-02-07T07:55:56.381Z,18.85
2023-02-07T07:58:24.643Z,18.52
2023-02-07T08:00:51.494Z,19.45
2023-02-07T08:03:19.618Z,20.20
2023-02-07T08:05:47.111Z,21.25
2023-02-07T08:08:13.899Z,19.08
2023-02-07T08:10:40.862Z,18.35
2023-02-07T08:13:08.457Z,19.90
2023-02-07T08:15:35.095Z,21.85
2023-02-07T08:18:01.757Z,19.48
2023-02-07T08:20:28.387Z,19.83
2023-02-07T08:22:54.979Z,22.50
2023-02-07T08:25:21.550Z,19.70
2023-02-07T08:27:48.154Z,23.35
2023-02-07T08:30:16.227Z,21.25
2023-02-07T08:32:42.885Z,22.08
2023-02-07T08:35:09.960Z,21.35
2023-02-07T08:37:36.706Z,21.98
2023-02-07T08:40:05.410Z,20.33
2023-02-07T08:42:32.293Z,22.67
2023-02-07T08:44:58.842Z,21.92
2023-02-07T08:47:25.456Z,22.20
2023-02-07T08:49:52.180Z,22.00
2023-02-07T08:52:18.845Z,21.13
2023-02-07T08:54:48.286Z,21.40
2023-02-07T08:57:17.339Z,18.67
2023-02-07T08:59:43.954Z,19.02
2023-02-07T09:02:11.991Z,17.98
2023-02-07T09:04:38.859Z,20.42
2023-02-07T09:07:05.426Z,19.83
2023-02-07T09:09:32.782Z,18.83
2023-02-07T09:12:02.284Z,18.02
2023-02-07T09:14:28.973Z,18.25
2023-02-07T09:16:55.939Z,18.05
2023-02-07T09:19:22.517Z,17.27
2023-02-07T09:21:49.703Z,16.98
2023-02-07T09:24:16.299Z,16.67
2023-02-07T09:26:42.868Z,14.60
2023-02-07T09:29:13.369Z,16.52
2023-02-07T09:31:40.332Z,14.45
2023-02-07T09:34:07.669Z,14.02
2023-02-07T09:36:34.809Z,13.65
2023-02-07T09:39:02.195Z,12.65
2023-02-07T09:41:59.454Z,14.50
2023-02-07T09:44:58.743Z,12.70
2023-02-07T09:47:26.871Z,13.50
2023-02-07T09:50:08.493Z,13.20
2023-02-07T09:52:49.540Z,13.68
2023-02-07T09:55:24.726Z,13.35
2023-02-07T09:58:20.092Z,12.68
2023-02-07T10:00:56.840Z,13.48
2023-02-07T10:03:24.575Z,12.35
2023-02-07T10:06:03.573Z,12.65
2023-02-07T10:08:40.853Z,13.82
2023-02-07T10:14:08.367Z,12.02
2023-02-07T10:16:34.844Z,12.25
2023-02-07T10:19:34.316Z,11.70
2023-02-07T10:22:18.583Z,12.20
2023-02-07T10:25:06.527Z,11.57
2023-02-07T10:27:54.081Z,12.43
2023-02-07T10:30:28.201Z,9.75
2023-02-07T10:33:01.240Z,12.30
2023-02-07T10:35:37.317Z,10.80
2023-02-07T10:38:04.704Z,12.25
2023-02-07T10:40:48.763Z,11.57
2023-02-07T10:43:32.593Z,11.57
2023-02-07T10:46:06.216Z,11.70
2023-02-07T10:48:34.253Z,11.70
2023-02-07T10:51:03.758Z,11.32
2023-02-07T10:53:54.359Z,11.82
2023-02-07T10:56:27.354Z,10.77
2023-02-07T10:58:57.002Z,12.35
2023-02-07T11:01:29.370Z,10.88
2023-02-07T11:03:57.107Z,10.85
2023-02-07T11:06:32.778Z,11.13
2023-02-07T11:09:18.222Z,11.32
2023-02-07T11:14:17.775Z,10.90
2023-02-07T11:16:45.765Z,11.00
2023-02-07T11:19:20.428Z,10.60
2023-02-07T11:21:49.438Z,11.38
2023-02-07T11:24:31.594Z,11.57
2023-02-07T11:27:12.796Z,10.20
2023-02-07T11:29:54.566Z,9.95
2023-02-07T11:32:24.542Z,9.52
2023-02-07T11:35:09.739Z,10.32
2023-02-07T11:37:38.333Z,11.43
2023-02-07T11:40:24.960Z,9.88
2023-02-07T11:43:18.112Z,10.75
2023-02-07T11:45:50.264Z,10.15
2023-02-07T11:48:26.052Z,10.25
2023-02-07T11:50:59.267Z,8.38
2023-02-07T11:53:36.879Z,9.50
2023-02-07T11:56:04.650Z,8.05
2023-02-07T11:58:37.951Z,8.77
2023-02-07T12:01:07.419Z,7.75
2023-02-07T12:03:42.592Z,6.90
2023-02-07T12:06:14.714Z,7.43
2023-02-07T12:08:56.033Z,6.73
2023-02-07T12:11:27.279Z,6.88
2023-02-07T12:13:58.036Z,6.90
2023-02-07T12:16:29.540Z,7.60
2023-02-07T12:19:00.193Z,7.47
2023-02-07T12:21:36.189Z,7.13
2023-02-07T12:24:18.752Z,7.43
2023-02-07T12:26:54.826Z,6.22
2023-02-07T12:29:40.090Z,6.85
2023-02-07T12:32:06.854Z,7.40
2023-02-07T12:34:52.284Z,7.30
2023-02-07T12:37:24.862Z,6.55
2023-02-07T12:40:23.750Z,6.78
2023-02-07T12:43:02.844Z,7.38
2023-02-07T12:45:55.316Z,7.32
2023-02-07T12:48:31.137Z,7.28
2023-02-07T12:51:25.007Z,7.60
2023-02-07T12:54:16.880Z,7.15
2023-02-07T12:57:08.436Z,6.70
2023-02-07T12:59:53.433Z,6.50
2023-02-07T13:02:55.095Z,7.03
2023-02-07T13:05:51.561Z,6.63
2023-02-07T13:08:26.221Z,6.38
2023-02-07T13:11:08.503Z,6.68
2023-02-07T13:13:53.548Z,7.22
2023-02-07T13:16:34.117Z,6.82
2023-02-07T13:19:22.508Z,7.25
2023-02-07T13:22:05.828Z,7.07
2023-02-07T13:24:33.619Z,7.38
2023-02-07T13:27:12.658Z,7.28
2023-02-07T13:29:42.837Z,7.13
2023-02-07T13:32:15.553Z,6.25
2023-02-07T13:34:56.364Z,6.90
2023-02-07T13:37:31.846Z,6.97
2023-02-07T13:40:28.171Z,6.75
2023-02-07T13:43:06.497Z,6.78
2023-02-07T13:45:43.563Z,7.28
2023-02-07T13:48:27.792Z,6.85
2023-02-07T13:51:24.073Z,6.90
2023-02-07T13:54:08.999Z,6.38
2023-02-07T13:56:55.669Z,6.93
2023-02-07T14:00:07.629Z,7.35
2023-02-07T14:02:42.393Z,7.07
2023-02-07T14:05:23.002Z,7.93
2023-02-07T14:07:58.044Z,7.75
2023-02-07T14:13:06.888Z,7.70
2023-02-07T14:15:36.480Z,8.20
2023-02-07T14:18:05.806Z,7.07
2023-02-07T14:20:35.734Z,8.27
2023-02-07T14:23:58.668Z,8.30
2023-02-07T14:26:40.550Z,8.90
2023-02-07T14:29:25.102Z,8.45
2023-02-07T14:31:59.189Z,8.95
2023-02-07T14:34:31.043Z,9.10
2023-02-07T14:37:00.486Z,8.23
2023-02-07T14:39:31.463Z,8.95
2023-02-07T14:42:11.207Z,8.68
2023-02-07T14:44:41.636Z,8.57
2023-02-07T14:47:19.906Z,8.32
2023-02-07T14:49:49.262Z,9.25
2023-02-07T14:52:29.129Z,9.57
2023-02-07T14:55:17.118Z,8.85
2023-02-07T14:57:57.678Z,8.60
2023-02-07T15:00:29.159Z,8.77
2023-02-07T15:03:06.294Z,9.55
2023-02-07T15:05:38.660Z,10.13
2023-02-07T15:08:09.003Z,9.30
2023-02-07T15:10:45.157Z,9.43
2023-02-07T15:13:31.281Z,10.15
2023-02-07T15:16:05.925Z,10.63
2023-02-07T15:18:37.863Z,10.23
2023-02-07T15:21:06.064Z,10.77
2023-02-07T15:23:33.140Z,10.98
2023-02-07T15:26:05.667Z,10.52
2023-02-07T15:28:33.209Z,10.18
2023-02-07T15:31:04.608Z,11.18
2023-02-07T15:33:39.602Z,11.25
2023-02-07T15:36:28.318Z,10.55
2023-02-07T15:38:55.274Z,11.90
2023-02-07T15:41:21.860Z,11.07
2023-02-07T15:44:03.220Z,11.27
2023-02-07T15:46:50.665Z,12.35
2023-02-07T15:49:26.607Z,12.57
2023-02-07T15:51:57.375Z,10.95
2023-02-07T15:54:27.278Z,11.95
2023-02-07T15:57:00.624Z,11.93
2023-02-07T15:59:30.170Z,12.15
2023-02-07T16:02:02.744Z,11.48
2023-02-07T16:04:32.439Z,11.30
2023-02-07T16:07:04.313Z,12.63
2023-02-07T16:09:36.923Z,12.75
2023-02-07T16:12:41.787Z,10.82
2023-02-07T16:15:25.252Z,10.95
2023-02-07T16:17:51.828Z,11.45
2023-02-07T16:20:19.180Z,10.93
2023-02-07T16:22:47.303Z,11.55
2023-02-07T16:25:27.802Z,11.07
2023-02-07T16:27:54.778Z,11.88
2023-02-07T16:30:30.245Z,11.50
2023-02-07T16:32:56.787Z,26.80
2023-02-07T16:35:26.472Z,28.20
2023-02-07T16:37:54.677Z,12.55
2023-02-07T16:40:26.706Z,12.82
2023-02-07T16:42:55.542Z,12.07
2023-02-07T16:45:24.933Z,10.82
2023-02-07T16:47:51.669Z,12.25
2023-02-07T16:50:23.866Z,11.15
2023-02-07T16:52:52.060Z,12.60
2023-02-07T16:55:20.774Z,11.40
2023-02-07T16:57:49.034Z,11.93
2023-02-07T17:00:22.260Z,11.85
2023-02-07T17:02:50.537Z,12.68
2023-02-07T17:05:21.624Z,12.90
2023-02-07T17:07:49.923Z,12.38
2023-02-07T17:10:27.912Z,12.65
2023-02-07T17:12:54.647Z,13.85
2023-02-07T17:15:21.796Z,13.48
2023-02-07T17:17:48.768Z,13.27
2023-02-07T17:20:26.193Z,15.57
2023-02-07T17:22:53.518Z,13.70
2023-02-07T17:25:22.373Z,15.05
2023-02-07T17:27:49.044Z,14.27
2023-02-07T17:30:25.231Z,13.43
2023-02-07T17:32:52.220Z,13.50
2023-02-07T17:35:20.772Z,15.18
2023-02-07T17:37:50.694Z,13.13
2023-02-07T17:40:23.333Z,14.48
2023-02-07T17:42:50.456Z,14.70
2023-02-07T17:45:17.504Z,14.07
2023-02-07T17:47:44.217Z,14.60
2023-02-07T17:50:17.912Z,14.88
2023-02-07T17:52:46.825Z,14.75
2023-02-07T17:55:14.757Z,15.38
2023-02-07T17:57:42.388Z,14.32
2023-02-07T18:00:18.200Z,15.05
2023-02-07T18:02:47.497Z,14.32
2023-02-07T18:05:15.438Z,12.98
2023-02-07T18:07:43.106Z,15.25
2023-02-07T18:10:12.077Z,14.23
2023-02-07T18:12:38.620Z,14.68
2023-02-07T18:15:08.456Z,16.33
2023-02-07T18:17:36.428Z,14.85
2023-02-07T18:20:05.217Z,14.93
2023-02-07T18:22:31.806Z,13.00
2023-02-07T18:24:58.398Z,12.10
2023-02-07T18:27:25.226Z,13.68
2023-02-07T18:29:52.014Z,12.38
2023-02-07T18:32:18.647Z,14.13
2023-02-07T18:34:45.248Z,14.02
2023-02-07T18:37:11.843Z,14.10
2023-02-07T18:39:38.442Z,13.02
2023-02-07T18:42:05.071Z,13.10
2023-02-07T18:44:31.637Z,12.52
2023-02-07T18:46:58.220Z,12.95
2023-02-07T18:49:24.772Z,12.90
2023-02-07T18:51:51.286Z,13.30
2023-02-07T18:54:20.235Z,14.70
2023-02-07T18:56:52.198Z,13.60
2023-02-07T18:59:24.058Z,14.90
2023-02-07T19:01:53.556Z,13.38
2023-02-07T19:04:21.169Z,14.23
2023-02-07T19:06:52.112Z,15.38
2023-02-07T19:09:21.185Z,13.57
2023-02-07T19:11:51.148Z,15.60
2023-02-07T19:14:20.411Z,15.15
2023-02-07T19:16:49.479Z,16.40
2023-02-07T19:19:16.292Z,17.77
2023-02-07T19:21:42.902Z,16.33
2023-02-07T19:24:15.848Z,15.48
2023-02-07T19:26:43.200Z,17.55
2023-02-07T19:29:10.127Z,17.17
2023-02-07T19:31:37.677Z,18.00
2023-02-07T19:34:04.275Z,17.00
2023-02-07T19:36:31.385Z,18.13
2023-02-07T19:38:59.244Z,18.27
2023-02-07T19:41:28.021Z,17.27
2023-02-07T19:43:55.118Z,17.23
2023-02-07T19:46:22.073Z,18.65
2023-02-07T19:48:49.518Z,17.40
2023-02-07T19:51:19.177Z,17.45
2023-02-07T19:53:47.533Z,17.13
2023-02-07T19:56:14.226Z,17.77
2023-02-07T19:58:43.551Z,16.55
2023-02-07T20:01:11.500Z,17.33
2023-02-07T20:03:39.552Z,18.02
2023-02-07T20:06:10.436Z,17.75
2023-02-07T20:08:39.514Z,18.05
2023-02-07T20:11:11.463Z,18.02
2023-02-07T20:13:41.416Z,17.05
2023-02-07T20:16:10.761Z,20.35
2023-02-07T20:18:37.389Z,19.10
2023-02-07T20:21:11.281Z,18.70
2023-02-07T20:23:44.212Z,18.13
2023-02-07T20:26:16.262Z,19.05
2023-02-07T20:28:43.531Z,19.38
2023-02-07T20:31:12.105Z,19.60
2023-02-07T20:33:40.568Z,20.45
2023-02-07T20:36:08.118Z,19.05
2023-02-07T20:38:35.124Z,20.00
2023-02-07T20:41:11.173Z,19.67
2023-02-07T20:43:38.198Z,19.30
2023-02-07T20:46:10.809Z,20.52
2023-02-07T20:48:37.420Z,19.10
2023-02-07T20:51:10.578Z,20.15
2023-02-07T20:53:42.088Z,19.08
2023-02-07T20:56:17.342Z,21.42
2023-02-07T20:58:47.315Z,20.48
2023-02-07T21:01:19.788Z,18.90
2023-02-07T21:03:46.872Z,20.10
2023-02-07T21:06:13.563Z,19.80
2023-02-07T21:08:41.542Z,18.92
2023-02-07T21:11:09.103Z,21.05
2023-02-07T21:13:36.936Z,21.00
2023-02-07T21:16:05.510Z,19.23
2023-02-07T21:18:33.468Z,19.52
2023-02-07T21:21:00.778Z,20.27
2023-02-07T21:23:27.348Z,21.38
2023-02-07T21:25:54.065Z,20.40
2023-02-07T21:28:20.731Z,19.38
2023-02-07T21:30:47.406Z,18.98
2023-02-07T21:33:14.186Z,21.15
2023-02-07T21:35:40.755Z,21.17
2023-02-07T21:38:07.315Z,20.63
2023-02-07T21:40:34.399Z,22.17
2023-02-07T21:43:01.133Z,20.15
2023-02-07T21:45:28.014Z,18.02
2023-02-07T21:47:54.652Z,20.05
2023-02-07T21:50:21.221Z,19.20
2023-02-07T21:52:47.802Z,21.13
2023-02-07T21:55:14.395Z,20.67
2023-02-07T21:57:40.984Z,22.35
2023-02-07T22:00:08.336Z,22.08
2023-02-07T22:02:35.351Z,20.98
2023-02-07T22:05:02.373Z,22.30
2023-02-07T22:07:28.894Z,21.48
2023-02-07T22:09:55.445Z,21.40
2023-02-07T22:12:21.964Z,21.38
2023-02-07T22:14:48.514Z,20.45
2023-02-07T22:17:15.064Z,22.52
2023-02-07T22:19:41.702Z,24.08
2023-02-07T22:22:08.384Z,20.92
2023-02-07T22:24:34.961Z,23.50
2023-02-07T22:27:01.533Z,24.02
2023-02-07T22:29:28.144Z,23.85
2023-02-07T22:31:55.227Z,22.55
2023-02-07T22:34:21.877Z,23.42
2023-02-07T22:36:48.588Z,24.45
2023-02-07T22:39:17.414Z,23.20
2023-02-07T22:41:44.751Z,25.27
2023-02-07T22:44:11.532Z,24.65
2023-02-07T22:46:38.608Z,25.20
2023-02-07T22:49:05.177Z,24.98
2023-02-07T22:51:35.127Z,26.02
2023-02-07T22:54:05.746Z,26.20
2023-02-07T22:56:33.917Z,26.15
2023-02-07T22:59:00.471Z,28.55
2023-02-07T23:01:32.984Z,26.33
2023-02-07T23:04:02.050Z,23.58
2023-02-07T23:06:28.673Z,26.00
2023-02-07T23:08:55.411Z,27.50
2023-02-07T23:11:23.903Z,25.73
2023-02-07T23:13:52.045Z,25.85
2023-02-07T23:16:21.919Z,24.48
2023-02-07T23:18:49.844Z,27.88
2023-02-07T23:21:19.080Z,25.98
2023-02-07T23:23:45.980Z,28.25
2023-02-07T23:26:16.555Z,27.08
2023-02-07T23:28:43.713Z,26.83
2023-02-07T23:31:12.318Z,26.25
2023-02-07T23:33:39.473Z,26.63
2023-02-07T23:36:07.162Z,27.85
2023-02-07T23:38:34.217Z,28.25
2023-02-07T23:41:04.062Z,26.17
2023-02-07T23:43:30.664Z,28.50
2023-02-07T23:45:57.266Z,29.85
2023-02-07T23:48:23.845Z,28.95
2023-02-07T23:50:54.649Z,29.85
2023-02-07T23:53:22.200Z,30.40
2023-02-07T23:55:50.357Z,30.58
2023-02-07T23:58:17.462Z,30.23
